Time;durP1;ratioP1;P1;durP2;ratioP2;P2;SDS_P1;SDS_P2;PMS_P1;PMS_P2;Temp;Humidity;BMP_temperature;BMP_pressure;BME280_temperature;BME280_humidity;BME280_pressure;Samples;Min_cycle;Max_cycle;Signal;HPM_P1;HPM_P2
2022/03/01 00:00:17;;;;;;;0.88;0.88;;;;;;;0.39;50.68;98023.75;29375;222;63004;-70
2022/03/01 00:00:48;;;;;;;0.60;0.60;;;;;;;0.39;50.07;98017.59;29375;209;63009;-63
2022/03/01 00:01:19;;;;;;;0.60;0.60;;;;;;;0.41;50.05;98027.03;29375;248;63004;-71
2022/03/01 00:01:52;;;;;;;0.62;0.62;;;;;;;0.42;50.03;98022.53;29375;218;63008;-70
2022/03/01 00:02:24;;;;;;;0.60;0.60;;;;;;;0.42;50.05;98012.66;29375;279;63004;-70
2022/03/01 00:02:56;;;;;;;0.60;0.60;;;;;;;0.41;50.09;98021.69;29375;213;63009;-63
2022/03/01 00:03:27;;;;;;;0.60;0.60;;;;;;;0.41;50.12;98020.88;29373;203;64005;-69
2022/03/01 00:03:59;;;;;;;0.60;0.60;;;;;;;0.40;50.22;98020.06;29375;273;63009;-62
2022/03/01 00:04:31;;;;;;;2.95;2.05;;;;;;;0.41;50.61;98027.03;29376;253;63005;-61
2022/03/01 00:05:03;;;;;;;0.60;0.60;;;;;;;0.40;50.43;98021.91;29374;203;64009;-63
2022/03/01 00:05:34;;;;;;;0.60;0.60;;;;;;;0.38;50.29;98021.28;29376;261;63005;-62
2022/03/01 00:06:05;;;;;;;0.60;0.60;;;;;;;0.37;50.20;98025.78;29376;258;63018;-69
2022/03/01 00:06:37;;;;;;;0.60;0.60;;;;;;;0.35;50.74;98019.03;29376;229;63005;-69
2022/03/01 00:07:08;;;;;;;0.60;0.60;;;;;;;0.35;50.60;98027.03;29376;237;63009;-69
2022/03/01 00:07:39;;;;;;;0.60;0.60;;;;;;;0.34;50.72;98026.22;29374;311;64004;-71
2022/03/01 00:08:10;;;;;;;0.60;0.60;;;;;;;0.35;50.79;98024.38;29376;241;63009;-62
2022/03/01 00:08:41;;;;;;;0.60;0.60;;;;;;;0.35;50.71;98027.84;29376;220;63004;-63
2022/03/01 00:09:13;;;;;;;0.60;0.60;;;;;;;0.36;50.72;98028.66;29376;205;63008;-70
2022/03/01 00:09:47;;;;;;;0.70;0.70;;;;;;;0.35;50.73;98021.69;29376;259;63004;-62
2022/03/01 00:10:19;;;;;;;0.60;0.60;;;;;;;0.35;50.79;98029.72;29376;243;63009;-69
2022/03/01 00:10:50;;;;;;;0.60;0.60;;;;;;;0.33;50.76;98027.25;29376;209;63011;-62
2022/03/01 00:11:22;;;;;;;0.60;0.60;;;;;;;0.35;50.73;98027.84;29376;234;63009;-68
2022/03/01 00:11:53;;;;;;;0.62;0.62;;;;;;;0.36;50.94;98034.81;29396;273;63005;-64
2022/03/01 00:12:24;;;;;;;0.60;0.60;;;;;;;0.36;51.02;98032.16;29376;257;63018;-63
2022/03/01 00:12:55;;;;;;;0.60;0.60;;;;;;;0.36;51.18;98029.47;29374;220;64005;-63
2022/03/01 00:13:29;;;;;;;0.60;0.60;;;;;;;0.34;51.20;98031.56;29376;234;63009;-62
2022/03/01 00:14:00;;;;;;;0.60;0.60;;;;;;;0.33;51.67;98040.59;29374;244;64004;-70
2022/03/01 00:14:31;;;;;;;0.60;0.60;;;;;;;0.31;51.45;98034.63;29376;205;63009;-69
2022/03/01 00:15:04;;;;;;;3.83;3.45;;;;;;;0.32;51.26;98028.25;29376;198;63004;-63
2022/03/01 00:15:37;;;;;;;0.60;0.60;;;;;;;0.35;50.78;98030.50;29376;295;63009;-70
2022/03/01 00:16:08;;;;;;;0.60;0.60;;;;;;;0.37;50.97;98030.31;29376;236;63004;-62
2022/03/01 00:16:40;;;;;;;0.60;0.60;;;;;;;0.35;51.34;98027.84;29376;202;63008;-69
2022/03/01 00:17:11;;;;;;;0.52;0.52;;;;;;;0.39;50.69;98023.75;29376;231;63004;-63
2022/03/01 00:17:45;;;;;;;0.60;0.60;;;;;;;0.40;50.49;98025.41;29376;199;63009;-64
2022/03/01 00:18:16;;;;;;;0.60;0.60;;;;;;;0.37;50.53;98025.78;29373;262;64005;-63
2022/03/01 00:18:47;;;;;;;0.70;0.70;;;;;;;0.35;50.96;98027.03;29374;220;64009;-63
2022/03/01 00:19:18;;;;;;;0.60;0.60;;;;;;;0.34;51.21;98034.22;29375;321;63005;-64
2022/03/01 00:19:49;;;;;;;0.60;0.60;;;;;;;0.32;51.48;98028.25;29375;220;63009;-62
2022/03/01 00:20:21;;;;;;;0.60;0.60;;;;;;;0.30;51.22;98035.66;29375;202;63005;-69
2022/03/01 00:20:52;;;;;;;0.60;0.60;;;;;;;0.28;51.30;98032.34;29375;205;63009;-70
2022/03/01 00:21:23;;;;;;;0.70;0.70;;;;;;;0.27;51.52;98033.38;29375;196;63004;-62
2022/03/01 00:21:58;;;;;;;0.60;0.60;;;;;;;0.25;51.54;98038.91;29374;233;63009;-69
2022/03/01 00:22:29;;;;;;;0.60;0.60;;;;;;;0.25;51.81;98043.44;29375;239;63004;-65
2022/03/01 00:23:01;;;;;;;0.60;0.60;;;;;;;0.22;52.34;98033.16;29373;209;64009;-63
2022/03/01 00:23:32;;;;;;;0.70;0.70;;;;;;;0.19;52.29;98038.88;29375;284;63004;-63
2022/03/01 00:24:04;;;;;;;0.70;0.70;;;;;;;0.17;51.91;98041.75;29375;228;63008;-70
2022/03/01 00:24:35;;;;;;;7.12;6.53;;;;;;;0.16;51.95;98039.28;29375;245;63005;-69
2022/03/01 00:25:08;;;;;;;0.60;0.60;;;;;;;0.14;52.10;98030.66;29375;243;63009;-70
2022/03/01 00:25:40;;;;;;;0.60;0.60;;;;;;;0.15;51.98;98037.63;29375;204;63005;-69
2022/03/01 00:26:14;;;;;;;0.60;0.60;;;;;;;0.18;52.05;98039.91;29375;206;63009;-62
2022/03/01 00:26:48;;;;;;;0.60;0.60;;;;;;;0.19;52.14;98034.37;29375;202;63005;-63
2022/03/01 00:27:20;;;;;;;0.60;0.60;;;;;;;0.19;51.93;98042.37;29375;341;63009;-63
2022/03/01 00:27:51;;;;;;;0.60;0.60;;;;;;;0.20;51.79;98037.84;29375;204;63012;-70
2022/03/01 00:28:22;;;;;;;0.60;0.60;;;;;;;0.22;51.60;98038.47;29373;212;64009;-71
2022/03/01 00:28:53;;;;;;;0.60;0.60;;;;;;;0.21;51.75;98043.00;29374;266;64004;-69
2022/03/01 00:29:24;;;;;;;0.60;0.60;;;;;;;0.19;52.16;98049.56;29373;355;64009;-69
2022/03/01 00:29:56;;;;;;;0.62;0.62;;;;;;;0.15;52.46;98038.44;29375;206;63004;-69
2022/03/01 00:30:27;;;;;;;0.50;0.50;;;;;;;0.15;52.29;98037.63;29374;292;63009;-69
2022/03/01 00:30:58;;;;;;;0.60;0.60;;;;;;;0.16;52.41;98041.94;29375;246;63004;-63
2022/03/01 00:31:32;;;;;;;0.60;0.60;;;;;;;0.19;52.22;98038.88;29375;221;63008;-63
2022/03/01 00:32:05;;;;;;;0.60;0.60;;;;;;;0.20;51.89;98043.19;29375;202;63019;-63
2022/03/01 00:32:36;;;;;;;0.60;0.60;;;;;;;0.19;51.68;98038.88;29375;232;63009;-68
2022/03/01 00:33:12;;;;;;;0.60;0.60;;;;;;;0.18;52.26;98037.22;29375;199;63005;-64
2022/03/01 00:33:43;;;;;;;0.68;0.68;;;;;;;0.16;51.91;98033.94;29375;325;63009;-62
2022/03/01 00:34:14;;;;;;;0.60;0.60;;;;;;;0.14;52.73;98033.31;29373;321;64005;-70
2022/03/01 00:34:45;;;;;;;0.60;0.60;;;;;;;0.11;52.69;98036.38;29375;254;63009;-70
2022/03/01 00:35:18;;;;;;;0.60;0.60;;;;;;;0.09;52.61;98043.75;29375;268;63005;-63
2022/03/01 00:35:49;;;;;;;0.60;0.60;;;;;;;0.07;52.71;98040.47;29375;202;63009;-64
2022/03/01 00:36:20;;;;;;;0.70;0.70;;;;;;;0.08;52.75;98034.09;29375;344;63004;-64
2022/03/01 00:36:51;;;;;;;0.90;0.90;;;;;;;0.07;53.25;98048.47;29375;196;63009;-63
2022/03/01 00:37:23;;;;;;;0.60;0.60;;;;;;;0.05;53.01;98043.31;29375;202;63004;-70
2022/03/01 00:37:54;;;;;;;0.68;0.68;;;;;;;0.02;53.00;98042.87;29375;353;63009;-63
2022/03/01 00:38:25;;;;;;;0.60;0.60;;;;;;;0.01;52.91;98047.41;29375;228;63004;-62
2022/03/01 00:38:56;;;;;;;0.60;0.60;;;;;;;0.00;52.78;98046.56;29375;201;63008;-70
2022/03/01 00:39:27;;;;;;;0.70;0.70;;;;;;;-0.01;53.52;98042.28;29373;368;64005;-63
2022/03/01 00:39:59;;;;;;;0.60;0.60;;;;;;;-0.02;53.35;98048.66;29375;364;63009;-63
2022/03/01 00:40:30;;;;;;;0.62;0.62;;;;;;;-0.03;53.49;98047.00;29375;230;63005;-69
2022/03/01 00:41:01;;;;;;;0.70;0.70;;;;;;;-0.04;53.59;98047.19;29375;204;63009;-70
2022/03/01 00:41:33;;;;;;;0.60;0.60;;;;;;;-0.05;53.60;98051.72;29375;206;63007;-69
2022/03/01 00:42:05;;;;;;;0.60;0.60;;;;;;;-0.05;53.60;98048.22;29375;202;63009;-69
2022/03/01 00:42:36;;;;;;;0.70;0.70;;;;;;;-0.06;54.03;98050.06;29375;224;63005;-62
2022/03/01 00:43:07;;;;;;;0.70;0.70;;;;;;;-0.09;54.58;98049.63;29375;202;63009;-70
2022/03/01 00:43:39;;;;;;;0.70;0.70;;;;;;;-0.14;54.48;98047.53;29375;255;63004;-62
2022/03/01 00:44:10;;;;;;;0.70;0.70;;;;;;;-0.17;54.27;98055.13;29373;313;64009;-67
2022/03/01 00:44:42;;;;;;;0.60;0.60;;;;;;;-0.18;54.40;98050.81;29375;254;63004;-63
2022/03/01 00:45:13;;;;;;;0.60;0.60;;;;;;;-0.17;53.94;98045.28;29375;207;63009;-63
2022/03/01 00:45:44;;;;;;;0.60;0.60;;;;;;;-0.17;54.14;98050.59;29375;196;63004;-70
2022/03/01 00:46:15;;;;;;;0.60;0.60;;;;;;;-0.15;53.80;98048.56;29375;214;63008;-62
2022/03/01 00:46:47;;;;;;;3.17;3.05;;;;;;;-0.16;54.28;98046.91;29375;211;63004;-64
2022/03/01 00:47:20;;;;;;;0.70;0.70;;;;;;;-0.16;53.96;98049.59;29375;213;63009;-63
2022/03/01 00:47:51;;;;;;;0.60;0.60;;;;;;;-0.18;54.74;98046.28;29375;216;63005;-70
2022/03/01 00:48:23;;;;;;;1.02;1.02;;;;;;;-0.19;54.97;98052.66;29375;275;63009;-63
2022/03/01 00:48:56;;;;;;;0.60;0.60;;;;;;;-0.21;55.47;98054.69;29375;198;63005;-71
2022/03/01 00:49:27;;;;;;;0.60;0.60;;;;;;;-0.25;55.10;98053.41;29373;247;64009;-70
2022/03/01 00:49:59;;;;;;;0.60;0.60;;;;;;;-0.27;55.09;98055.47;29375;225;63005;-70
2022/03/01 00:50:30;;;;;;;0.60;0.60;;;;;;;-0.25;54.76;98048.09;29375;211;63009;-63
2022/03/01 00:51:01;;;;;;;0.60;0.60;;;;;;;-0.27;54.72;98050.13;29375;323;63005;-71
2022/03/01 00:51:33;;;;;;;0.68;0.68;;;;;;;-0.28;54.91;98053.81;29375;219;63009;-63
2022/03/01 00:52:05;;;;;;;0.70;0.70;;;;;;;-0.30;55.30;98060.34;29375;214;63004;-71
2022/03/01 00:52:37;;;;;;;0.70;0.70;;;;;;;-0.33;54.71;98056.22;29375;365;63009;-62
2022/03/01 00:53:08;;;;;;;0.70;0.70;;;;;;;-0.33;54.78;98045.56;29375;207;63004;-71
2022/03/01 00:53:40;;;;;;;0.60;0.60;;;;;;;-0.32;54.36;98046.38;29375;220;63008;-71
2022/03/01 00:54:11;;;;;;;0.68;0.68;;;;;;;-0.34;54.88;98042.06;29375;364;63004;-70
2022/03/01 00:54:42;;;;;;;0.60;0.60;;;;;;;-0.33;54.33;98045.56;29373;354;64009;-70
2022/03/01 00:55:13;;;;;;;0.60;0.60;;;;;;;-0.34;54.56;98041.25;29374;204;64005;-70
2022/03/01 00:55:44;;;;;;;0.73;0.73;;;;;;;-0.36;54.83;98046.00;29376;197;63025;-63
2022/03/01 00:56:16;;;;;;;0.60;0.60;;;;;;;-0.37;54.92;98049.66;29375;206;63005;-70
2022/03/01 00:56:47;;;;;;;0.60;0.60;;;;;;;-0.37;54.91;98045.16;29374;197;63009;-72
2022/03/01 00:57:19;;;;;;;0.60;0.60;;;;;;;-0.38;55.51;98048.84;29375;292;63013;-71
2022/03/01 00:57:51;;;;;;;0.60;0.60;;;;;;;-0.38;55.08;98043.50;29375;224;63009;-63
2022/03/01 00:58:24;;;;;;;0.60;0.60;;;;;;;-0.37;55.05;98044.34;29375;218;63004;-71
2022/03/01 00:58:55;;;;;;;0.62;0.62;;;;;;;-0.37;55.29;98044.34;29375;288;63009;-71
2022/03/01 00:59:28;;;;;;;12.95;9.95;;;;;;;-0.36;55.19;98046.00;29367;199;65004;-71
2022/03/01 01:00:00;;;;;;;0.60;0.60;;;;;;;-0.36;55.70;98043.31;29375;288;63009;-63
2022/03/01 01:00:32;;;;;;;0.80;0.80;;;;;;;-0.37;55.10;98045.16;29373;208;64004;-70
2022/03/01 01:01:04;;;;;;;0.70;0.70;;;;;;;-0.40;55.26;98044.72;29375;273;63008;-63
2022/03/01 01:01:35;;;;;;;0.60;0.60;;;;;;;-0.44;55.31;98044.28;29375;259;63005;-71
2022/03/01 01:02:07;;;;;;;0.60;0.60;;;;;;;-0.45;56.34;98052.47;29375;214;63009;-69
2022/03/01 01:02:39;;;;;;;0.70;0.70;;;;;;;-0.47;55.96;98039.34;29375;244;63005;-71
2022/03/01 01:03:10;;;;;;;0.60;0.60;;;;;;;-0.47;56.56;98051.84;29375;295;63009;-71
2022/03/01 01:03:41;;;;;;;0.70;0.70;;;;;;;-0.50;56.79;98049.56;29375;287;63005;-71
2022/03/01 01:04:12;;;;;;;0.60;0.60;;;;;;;-0.52;56.13;98051.59;29375;250;63009;-63
2022/03/01 01:04:44;;;;;;;0.70;0.70;;;;;;;-0.54;56.50;98042.97;29375;300;63005;-71
2022/03/01 01:05:16;;;;;;;0.65;0.65;;;;;;;-0.56;56.59;98039.69;29373;312;64009;-62
2022/03/01 01:05:54;;;;;;;0.70;0.70;;;;;;;-0.57;56.27;98043.34;29375;297;63004;-63
2022/03/01 01:06:30;;;;;;;0.70;0.70;;;;;;;-0.57;56.39;98038.03;29397;210;63009;-63
2022/03/01 01:07:03;;;;;;;0.70;0.70;;;;;;;-0.57;55.83;98043.34;29397;198;63004;-70
2022/03/01 01:07:34;;;;;;;0.68;0.68;;;;;;;-0.57;56.04;98046.84;29375;220;63009;-70
2022/03/01 01:08:07;;;;;;;0.60;0.60;;;;;;;-0.56;55.89;98045.00;29375;203;63004;-70
2022/03/01 01:08:38;;;;;;;0.70;0.70;;;;;;;-0.58;56.63;98041.72;29375;196;63008;-70
2022/03/01 01:09:13;;;;;;;0.60;0.60;;;;;;;-0.58;57.06;98049.72;29375;222;63005;-63
2022/03/01 01:09:44;;;;;;;0.70;0.70;;;;;;;-0.59;56.57;98045.41;29373;362;64009;-63
2022/03/01 01:10:17;;;;;;;0.70;0.70;;;;;;;-0.60;57.01;98038.41;29375;206;63005;-70
2022/03/01 01:10:50;;;;;;;0.70;0.70;;;;;;;-0.61;56.64;98036.75;29372;197;64009;-63
2022/03/01 01:11:22;;;;;;;0.60;0.60;;;;;;;-0.63;57.30;98041.47;29373;211;63005;-64
2022/03/01 01:11:55;;;;;;;0.60;0.60;;;;;;;-0.64;57.18;98050.47;29373;272;63020;-65
2022/03/01 01:12:27;;;;;;;0.60;0.60;;;;;;;-0.68;57.27;98040.19;29373;202;63005;-70
2022/03/01 01:13:02;;;;;;;0.60;0.60;;;;;;;-0.69;57.64;98041.22;29373;247;63009;-62
2022/03/01 01:13:39;;;;;;;0.60;0.60;;;;;;;-0.72;57.69;98044.28;29373;202;63004;-70
2022/03/01 01:14:16;;;;;;;0.70;0.70;;;;;;;-0.74;57.49;98043.66;29373;332;63009;-64
2022/03/01 01:14:48;;;;;;;1.37;1.37;;;;;;;-0.76;57.83;98048.38;29371;322;64004;-70
2022/03/01 01:15:20;;;;;;;0.60;0.60;;;;;;;-0.78;58.04;98044.25;29373;205;63009;-62
2022/03/01 01:15:53;;;;;;;0.60;0.60;;;;;;;-0.78;57.49;98039.72;29373;244;63004;-71
2022/03/01 01:16:24;;;;;;;0.60;0.60;;;;;;;-0.76;57.42;98039.53;29373;279;63009;-71
2022/03/01 01:16:56;;;;;;;0.60;0.60;;;;;;;-0.79;57.47;98040.75;29373;245;63005;-63
2022/03/01 01:17:27;;;;;;;0.65;0.65;;;;;;;-0.77;57.78;98040.56;29373;262;63009;-71
2022/03/01 01:17:59;;;;;;;2.78;2.60;;;;;;;-0.77;57.81;98040.56;29373;233;63005;-70
2022/03/01 01:18:32;;;;;;;0.60;0.60;;;;;;;-0.77;57.72;98037.88;29373;325;63009;-64
2022/03/01 01:19:04;;;;;;;0.60;0.60;;;;;;;-0.79;57.45;98038.09;29373;236;63005;-70
2022/03/01 01:19:36;;;;;;;0.60;0.60;;;;;;;-0.82;57.79;98041.13;29373;228;63009;-63
2022/03/01 01:20:09;;;;;;;0.60;0.60;;;;;;;-0.84;57.65;98037.84;29371;243;64005;-71
2022/03/01 01:20:41;;;;;;;0.65;0.65;;;;;;;-0.86;57.79;98034.53;29373;340;63009;-62
2022/03/01 01:21:13;;;;;;;0.60;0.60;;;;;;;-0.85;58.32;98041.50;29373;365;63004;-71
2022/03/01 01:22:40;;;;;;;0.70;0.70;;;;;;;-0.86;58.42;98042.53;29373;323;63008;-64
2022/03/01 01:23:11;;;;;;;0.60;0.60;;;;;;;-0.87;58.28;98038.22;29373;200;63008;-70
2022/03/01 01:23:42;;;;;;;0.60;0.60;;;;;;;-0.87;58.05;98035.56;29373;272;63004;-63
2022/03/01 01:24:14;;;;;;;0.70;0.70;;;;;;;-0.90;58.40;98033.28;29373;213;63009;-63
2022/03/01 01:24:48;;;;;;;1.12;1.12;;;;;;;-0.92;59.17;98040.63;29373;235;63005;-63
2022/03/01 01:25:22;;;;;;;0.60;0.60;;;;;;;-0.94;58.58;98037.31;29371;222;64009;-71
2022/03/01 01:25:53;;;;;;;0.60;0.60;;;;;;;-0.95;58.35;98041.00;29373;275;63005;-63
2022/03/01 01:26:25;;;;;;;0.60;0.60;;;;;;;-0.95;59.13;98038.34;29373;204;63009;-71
2022/03/01 01:26:57;;;;;;;0.70;0.70;;;;;;;-0.97;59.25;98039.56;29373;267;63010;-63
2022/03/01 01:27:28;;;;;;;0.70;0.70;;;;;;;-0.98;58.57;98029.91;29373;209;63009;-63
2022/03/01 01:28:02;;;;;;;0.70;0.70;;;;;;;-0.99;58.60;98029.09;29373;246;63005;-63
2022/03/01 01:28:33;;;;;;;0.60;0.60;;;;;;;-1.01;58.69;98036.44;29373;370;63009;-71
2022/03/01 01:29:05;;;;;;;0.60;0.60;;;;;;;-1.03;58.78;98030.47;29373;295;63004;-71
2022/03/01 01:29:37;;;;;;;0.70;0.70;;;;;;;-1.05;58.74;98041.34;29373;244;63009;-62
2022/03/01 01:30:10;;;;;;;0.98;0.98;;;;;;;-1.05;58.40;98035.19;29373;332;63010;-64
2022/03/01 01:30:42;;;;;;;0.60;0.60;;;;;;;-1.06;58.72;98038.88;29371;356;64008;-62
2022/03/01 01:31:13;;;;;;;0.70;0.70;;;;;;;-1.08;58.34;98030.25;29373;220;63004;-65
2022/03/01 01:31:44;;;;;;;0.60;0.60;;;;;;;-1.06;58.62;98033.56;29372;326;64009;-71
2022/03/01 01:32:18;;;;;;;0.60;0.60;;;;;;;-1.04;58.79;98026.19;29373;308;63005;-70
2022/03/01 01:32:51;;;;;;;0.70;0.70;;;;;;;-1.03;58.60;98025.97;29371;255;64009;-64
2022/03/01 01:33:22;;;;;;;2.17;2.15;;;;;;;-1.01;58.41;98025.78;29373;221;63005;-70
2022/03/01 01:33:57;;;;;;;0.70;0.70;;;;;;;-0.99;58.28;98026.41;29371;206;64009;-63
2022/03/01 01:34:28;;;;;;;0.60;0.60;;;;;;;-0.99;58.12;98026.41;29373;250;63005;-63
2022/03/01 01:34:59;;;;;;;0.60;0.60;;;;;;;-0.98;58.49;98028.06;29373;206;63009;-69
2022/03/01 01:35:33;;;;;;;0.60;0.60;;;;;;;-0.98;58.64;98025.41;29373;360;63005;-69
2022/03/01 01:36:04;;;;;;;0.60;0.60;;;;;;;-0.97;58.42;98027.06;29372;222;63009;-70
2022/03/01 01:36:42;;;;;;;0.60;0.60;;;;;;;-0.96;58.87;98028.69;29372;223;63004;-62
2022/03/01 01:37:14;;;;;;;0.60;0.60;;;;;;;-0.96;58.43;98026.03;29373;212;63009;-62
2022/03/01 01:37:45;;;;;;;0.70;0.70;;;;;;;-0.98;58.58;98020.06;29373;232;63004;-69
2022/03/01 01:38:17;;;;;;;0.60;0.60;;;;;;;-0.98;58.74;98025.41;29373;234;63008;-63
2022/03/01 01:38:48;;;;;;;0.60;0.60;;;;;;;-1.00;58.29;98024.78;29371;216;64004;-70
2022/03/01 01:39:19;;;;;;;0.60;0.60;;;;;;;-1.02;58.71;98024.12;29373;227;63016;-62
2022/03/01 01:39:50;;;;;;;0.60;0.60;;;;;;;-1.03;58.76;98017.97;29373;199;63019;-62
2022/03/01 01:40:27;;;;;;;0.60;0.60;;;;;;;-1.01;58.97;98020.47;29373;275;63009;-70
2022/03/01 01:40:58;;;;;;;0.60;0.60;;;;;;;-1.01;59.26;98023.12;29371;208;64005;-71
2022/03/01 01:41:30;;;;;;;0.70;0.70;;;;;;;-1.02;58.70;98018.81;29373;202;63009;-71
2022/03/01 01:42:03;;;;;;;0.60;0.60;;;;;;;-1.03;59.37;98019.81;29373;219;63005;-71
2022/03/01 01:42:35;;;;;;;0.60;0.60;;;;;;;-1.08;59.67;98020.41;29373;202;63009;-65
2022/03/01 01:43:06;;;;;;;0.60;0.60;;;;;;;-1.11;59.21;98025.31;29373;217;63005;-62
2022/03/01 01:43:38;;;;;;;0.60;0.60;;;;;;;-1.15;59.10;98019.53;29373;218;63009;-62
2022/03/01 01:44:12;;;;;;;0.60;0.60;;;;;;;-1.18;59.01;98019.09;29371;225;64004;-63
2022/03/01 01:44:47;;;;;;;0.60;0.60;;;;;;;-1.18;59.03;98019.09;29371;251;64009;-64
2022/03/01 01:45:20;;;;;;;0.60;0.60;;;;;;;-1.18;59.14;98019.09;29373;204;63004;-63
2022/03/01 01:45:53;;;;;;;3.12;2.83;;;;;;;-1.20;60.13;98021.13;29373;207;63008;-62
2022/03/01 01:46:24;;;;;;;0.60;0.60;;;;;;;-1.23;60.35;98024.97;29373;218;63004;-63
2022/03/01 01:46:56;;;;;;;0.70;0.70;;;;;;;-1.24;59.79;98022.50;29373;197;63009;-62
2022/03/01 01:47:27;;;;;;;0.70;0.70;;;;;;;-1.26;59.99;98024.53;29371;211;64005;-63
2022/03/01 01:48:00;;;;;;;0.60;0.60;;;;;;;-1.29;60.21;98027.56;29373;385;63009;-61
2022/03/01 01:48:31;;;;;;;0.70;0.70;;;;;;;-1.32;60.46;98030.62;29373;216;63005;-61
2022/03/01 01:49:05;;;;;;;5.15;4.87;;;;;;;-1.32;60.23;98022.62;29373;298;63009;-70
2022/03/01 01:49:36;;;;;;;3.55;3.35;;;;;;;-1.33;59.87;98020.97;29373;214;63005;-70
2022/03/01 01:50:09;;;;;;;0.60;0.60;;;;;;;-1.32;59.90;98031.44;29373;229;63009;-63
2022/03/01 01:50:41;;;;;;;0.70;0.70;;;;;;;-1.31;59.77;98024.28;29373;272;63005;-70
2022/03/01 01:51:12;;;;;;;0.60;0.60;;;;;;;-1.34;60.42;98025.47;29371;218;64009;-71
2022/03/01 01:51:43;;;;;;;0.60;0.60;;;;;;;-1.37;61.20;98028.53;29373;229;63004;-70
2022/03/01 01:52:15;;;;;;;0.70;0.70;;;;;;;-1.40;60.86;98024.44;29373;200;63009;-70
2022/03/01 01:52:48;;;;;;;0.73;0.73;;;;;;;-1.41;60.36;98030.75;29373;202;63004;-63
2022/03/01 01:53:19;;;;;;;0.80;0.80;;;;;;;-1.39;60.86;98028.69;29373;203;63008;-70
2022/03/01 01:53:52;;;;;;;0.60;0.60;;;;;;;-1.36;60.19;98038.16;29373;197;63004;-63
2022/03/01 01:54:24;;;;;;;0.70;0.70;;;;;;;-1.35;60.98;98029.97;29373;202;63009;-71
2022/03/01 01:54:55;;;;;;;0.70;0.70;;;;;;;-1.37;61.36;98031.19;29373;233;63005;-72
2022/03/01 01:55:27;;;;;;;0.70;0.70;;;;;;;-1.41;60.92;98033.44;29373;248;63009;-72
2022/03/01 01:55:58;;;;;;;0.70;0.70;;;;;;;-1.43;60.37;98030.12;29373;206;63005;-64
2022/03/01 01:56:29;;;;;;;0.80;0.80;;;;;;;-1.44;60.13;98028.47;29371;213;64009;-71
2022/03/01 01:57:12;;;;;;;0.70;0.70;;;;;;;-1.40;59.89;98027.09;29373;211;63005;-63
2022/03/01 01:57:43;;;;;;;0.65;0.65;;;;;;;-1.32;59.63;98027.94;29373;269;63009;-70
2022/03/01 01:58:16;;;;;;;0.65;0.65;;;;;;;-1.29;59.25;98022.25;29373;198;63004;-70
2022/03/01 01:58:47;;;;;;;0.70;0.70;;;;;;;-1.24;59.07;98027.84;29373;209;63009;-62
2022/03/01 01:59:19;;;;;;;0.62;0.62;;;;;;;-1.22;59.40;98028.47;29373;225;63004;-69
2022/03/01 01:59:53;;;;;;;0.60;0.60;;;;;;;-1.18;58.86;98024.41;29373;211;63009;-69
2022/03/01 02:00:24;;;;;;;0.70;0.70;;;;;;;-1.15;58.82;98019.53;29371;209;64004;-70
2022/03/01 02:00:56;;;;;;;0.65;0.65;;;;;;;-1.10;58.32;98025.13;29373;208;63008;-70
2022/03/01 02:01:27;;;;;;;0.60;0.60;;;;;;;-1.08;58.43;98023.09;29373;202;63009;-71
2022/03/01 02:01:58;;;;;;;0.60;0.60;;;;;;;-1.06;58.42;98021.06;29373;229;63009;-62
2022/03/01 02:02:29;;;;;;;0.70;0.70;;;;;;;-1.06;58.01;98022.91;29373;257;63005;-62
2022/03/01 02:03:03;;;;;;;0.70;0.70;;;;;;;-1.04;58.26;98020.88;29373;233;63009;-63
2022/03/01 02:03:35;;;;;;;0.70;0.70;;;;;;;-1.03;58.10;98022.50;29373;203;63005;-69
2022/03/01 02:04:06;;;;;;;0.70;0.70;;;;;;;-1.04;58.04;98020.88;29373;207;63009;-70
2022/03/01 02:04:37;;;;;;;0.70;0.70;;;;;;;-1.01;57.88;98021.28;29373;203;63005;-62
2022/03/01 02:05:10;;;;;;;0.70;0.70;;;;;;;-0.98;57.72;98014.75;29373;299;63009;-70
2022/03/01 02:05:41;;;;;;;0.70;0.70;;;;;;;-0.96;58.03;98020.72;29371;263;64004;-71
2022/03/01 02:06:14;;;;;;;0.70;0.70;;;;;;;-0.97;58.52;98021.72;29373;265;63009;-69
2022/03/01 02:06:53;;;;;;;0.70;0.70;;;;;;;-1.00;58.10;98014.13;29373;241;63004;-68
2022/03/01 02:07:24;;;;;;;0.60;0.60;;;;;;;-0.99;57.85;98013.09;29373;212;63009;-69
2022/03/01 02:07:56;;;;;;;0.65;0.65;;;;;;;-0.97;57.68;98013.72;29373;290;63004;-70
2022/03/01 02:08:32;;;;;;;0.60;0.60;;;;;;;-0.97;57.76;98011.06;29371;203;64009;-70
2022/03/01 02:09:04;;;;;;;0.60;0.60;;;;;;;-0.93;57.62;98009.66;29373;271;63005;-70
2022/03/01 02:09:39;;;;;;;0.70;0.70;;;;;;;-0.91;57.75;98009.47;29373;244;63009;-70
2022/03/01 02:10:11;;;;;;;0.60;0.60;;;;;;;-0.92;57.79;98019.31;29373;216;63016;-63
2022/03/01 02:10:45;;;;;;;0.70;0.70;;;;;;;-0.92;57.82;98016.66;29373;210;63009;-70
2022/03/01 02:11:17;;;;;;;0.60;0.60;;;;;;;-0.91;57.81;98018.28;29373;230;63005;-70
2022/03/01 02:11:49;;;;;;;0.60;0.60;;;;;;;-0.89;57.77;98010.13;29373;202;63009;-68
2022/03/01 02:12:23;;;;;;;0.60;0.60;;;;;;;-0.86;57.35;98018.53;29373;243;63005;-69
2022/03/01 02:12:56;;;;;;;0.65;0.65;;;;;;;-0.81;57.34;98004.66;29373;268;63015;-72
2022/03/01 02:13:28;;;;;;;0.70;0.70;;;;;;;-0.78;56.85;98013.09;29371;203;64004;-69
2022/03/01 02:13:59;;;;;;;0.65;0.65;;;;;;;-0.76;56.87;98007.56;29373;207;63009;-62
2022/03/01 02:14:35;;;;;;;0.65;0.65;;;;;;;-0.77;56.87;98003.25;29373;203;63004;-63
2022/03/01 02:15:09;;;;;;;0.62;0.62;;;;;;;-0.76;56.93;98008.38;29373;202;63008;-69
2022/03/01 02:15:47;;;;;;;0.60;0.60;;;;;;;-0.75;56.64;98004.69;29373;202;63004;-62
2022/03/01 02:16:21;;;;;;;0.70;0.70;;;;;;;-0.76;56.51;98011.06;29373;260;63009;-62
2022/03/01 02:16:53;;;;;;;0.68;0.68;;;;;;;-0.75;56.52;98007.38;29371;257;64005;-62
2022/03/01 02:17:27;;;;;;;0.70;0.70;;;;;;;-0.72;56.72;98008.81;29373;197;63009;-69
2022/03/01 02:17:59;;;;;;;1.90;1.90;;;;;;;-0.72;56.64;98003.50;29373;207;63005;-70
2022/03/01 02:18:30;;;;;;;0.60;0.60;;;;;;;-0.70;56.44;98007.62;29373;206;63009;-70
2022/03/01 02:19:02;;;;;;;0.70;0.70;;;;;;;-0.70;56.36;98004.94;29373;214;63005;-62
2022/03/01 02:19:34;;;;;;;0.60;0.60;;;;;;;-0.70;56.54;98006.78;29373;216;63009;-70
2022/03/01 02:20:16;;;;;;;0.60;0.60;;;;;;;-0.71;56.50;98005.16;29373;221;63004;-69
2022/03/01 02:20:48;;;;;;;0.70;0.70;;;;;;;-0.72;56.36;98004.31;29371;212;64009;-62
2022/03/01 02:21:22;;;;;;;0.60;0.60;;;;;;;-0.76;56.42;98003.06;29373;235;63007;-69
2022/03/01 02:21:55;;;;;;;0.60;0.60;;;;;;;-0.78;56.54;98005.09;29371;233;64009;-71
2022/03/01 02:22:34;;;;;;;0.70;0.70;;;;;;;-0.79;56.95;98008.78;29373;214;63004;-70
2022/03/01 02:23:05;;;;;;;0.70;0.70;;;;;;;-0.78;56.94;98007.75;29373;249;63008;-61
2022/03/01 02:23:36;;;;;;;0.60;0.60;;;;;;;-0.76;56.68;97999.56;29373;208;63005;-62
2022/03/01 02:24:08;;;;;;;0.60;0.60;;;;;;;-0.76;56.76;98003.06;29371;222;64009;-68
2022/03/01 02:24:40;;;;;;;1.08;1.08;;;;;;;-0.75;56.50;97999.38;29373;218;63005;-67
2022/03/01 02:25:12;;;;;;;2.35;2.25;;;;;;;-0.75;56.68;97999.38;29373;197;63009;-70
2022/03/01 02:25:43;;;;;;;0.60;0.60;;;;;;;-0.72;56.52;97999.00;29373;210;63005;-61
2022/03/01 02:26:15;;;;;;;0.60;0.60;;;;;;;-0.71;56.60;98000.62;29373;228;63009;-69
2022/03/01 02:26:47;;;;;;;0.60;0.60;;;;;;;-0.71;56.61;97994.47;29373;221;63005;-62
2022/03/01 02:27:22;;;;;;;0.60;0.60;;;;;;;-0.69;56.40;98000.41;29371;212;64009;-71
2022/03/01 02:27:53;;;;;;;0.70;0.70;;;;;;;-0.74;56.63;97995.69;29373;207;63010;-70
2022/03/01 02:28:28;;;;;;;0.60;0.60;;;;;;;-0.77;56.55;97996.06;29373;212;63009;-68
2022/03/01 02:28:59;;;;;;;0.70;0.70;;;;;;;-0.74;56.58;98000.19;29373;227;63004;-70
2022/03/01 02:29:32;;;;;;;0.60;0.60;;;;;;;-0.75;56.73;97996.72;29372;313;64009;-70
2022/03/01 02:30:09;;;;;;;0.60;0.60;;;;;;;-0.76;56.55;98003.06;29373;345;63004;-71
2022/03/01 02:30:42;;;;;;;0.70;0.70;;;;;;;-0.72;56.28;97996.31;29371;391;64008;-70
2022/03/01 02:31:13;;;;;;;0.70;0.70;;;;;;;-0.72;56.40;97998.16;29373;214;63005;-62
2022/03/01 02:31:44;;;;;;;0.68;0.68;;;;;;;-0.74;56.55;97995.69;29373;209;63009;-62
2022/03/01 02:32:17;;;;;;;0.70;0.70;;;;;;;-0.76;56.35;97994.25;29373;255;63005;-70
2022/03/01 02:32:50;;;;;;;0.70;0.70;;;;;;;-0.81;56.63;97994.81;29371;215;64009;-69
2022/03/01 02:33:22;;;;;;;0.70;0.70;;;;;;;-0.84;56.70;97989.87;29373;202;63005;-71
2022/03/01 02:33:53;;;;;;;0.60;0.60;;;;;;;-0.86;57.10;97989.25;29373;202;63009;-63
2022/03/01 02:34:25;;;;;;;0.70;0.70;;;;;;;-0.85;57.24;97993.53;29373;199;63005;-69
2022/03/01 02:34:56;;;;;;;0.60;0.60;;;;;;;-0.85;57.09;97993.53;29373;236;63009;-70